La Suprema — IBIL — position and weather

sailwx.info

Track history (hours):
 
Tides and Currents Weather Stations Pressure Air Temp Water Temp Dewpoint Dewpoint Depression Visibility Wind Speed Wind Dir Waves Ship Positions

La Suprema

Last reported at 2014-Oct-30 23:33 UTC. Time now 2014-Oct-31 07:00 UTC.
Position N 38°32' E 013°08'.

Length 211 m; draft 7.3 m.

Type: Passenger vessel. MMSI: 247083700.

Date/timePositionNaut miles runAvg speedWind from/ knotsBaromVisibWave heightAir tempDewpointWater temp
2014-Oct-30 23:33N 38°32' E 013°08'2121.2
2014-Oct-30 22:34N 38°15' E 013°23'7 6.9
2014-Oct-30 21:33N 38°08' E 013°22'0 0.0
2014-Oct-30 20:33N 38°08' E 013°22'34718.9
2014-Oct-30 02:11N 43°09' E 009°34'1321.6
2014-Oct-30 01:33N 43°21' E 009°27'2222.1
2014-Oct-30 00:33N 43°42' E 009°17'2221.9
2014-Oct-29 23:34N 44°03' E 009°06'2121.4
2014-Oct-29 22:33N 44°23' E 008°57'2 2.1
2014-Oct-29 21:33N 44°25' E 008°55'0 0.0
2014-Oct-29 20:27N 44°25' E 008°55'0 0.0
2014-Oct-29 19:33N 44°25' E 008°55'0 0.0
2014-Oct-29 18:33N 44°25' E 008°55'3 3.5
2014-Oct-29 17:33N 44°22' E 008°58'2121.5
2014-Oct-29 16:34N 44°03' E 009°13'2121.5
2014-Oct-29 15:34N 43°45' E 009°28'2221.5
2014-Oct-29 14:33N 43°26' E 009°43'2221.6
2014-Oct-29 13:32N 43°07' E 009°58'30823.7
2014-Oct-29 00:33N 38°34' E 013°07'2424.4
2014-Oct-28 23:34N 38°14' E 013°24'6 6.0
2014-Oct-28 22:32N 38°08' E 013°22'0 0.0
2014-Oct-28 21:31N 38°08' E 013°22'0 0.0
2014-Oct-28 20:31N 38°08' E 013°22'0 0.0
2014-Oct-28 19:33N 38°08' E 013°22'0 0.0
2014-Oct-28 18:34N 38°08' E 013°22'5 4.9
2014-Oct-28 17:33N 38°13' E 013°23'2824.0
2014-Oct-28 16:24N 38°36' E 013°05'31422.2
2014-Oct-28 02:14N 43°07' E 009°35'1420.5
2014-Oct-28 01:34N 43°20' E 009°28'2120.7
2014-Oct-28 00:34N 43°40' E 009°18'2121.1
2014-Oct-27 23:34N 43°60' E 009°08'2121.4
2014-Oct-27 22:34N 44°20' E 008°58'5 2.4
2014-Oct-27 20:24N 44°25' E 008°55'0 0.0
2014-Oct-27 19:32N 44°25' E 008°55'0 0.0
2014-Oct-27 18:26N 44°25' E 008°55'0 0.0
2014-Oct-27 16:19N 44°25' E 008°55'0 0.0
2014-Oct-27 15:25N 44°25' E 008°55'0 0.0
2014-Oct-27 13:30N 44°25' E 008°55'0 0.0
2014-Oct-27 11:30N 44°25' E 008°55'0 0.0
2014-Oct-27 09:29N 44°25' E 008°55'0 0.0
2014-Oct-27 08:16N 44°25' E 008°55'0 0.0
2014-Oct-27 07:28N 44°25' E 008°55'0 0.0
2014-Oct-27 06:15N 44°25' E 008°55'0 0.0
2014-Oct-27 04:05N 44°25' E 008°55'0 0.0
2014-Oct-27 02:10N 44°25' E 008°55'0 0.0
2014-Oct-27 00:28N 44°25' E 008°55'0 0.0
2014-Oct-26 23:33N 44°25' E 008°55'0 0.0
2014-Oct-26 21:05N 44°25' E 008°55'0 0.0
2014-Oct-26 20:17N 44°25' E 008°55'0 0.0
2014-Oct-26 19:32N 44°25' E 008°55'0 0.2
2014-Oct-26 18:33N 44°24' E 008°55'1717.1
2014-Oct-26 17:33N 44°10' E 009°08'2221.7
2014-Oct-26 16:33N 43°51' E 009°23'2221.9
2014-Oct-26 15:33N 43°32' E 009°38'2221.5
2014-Oct-26 14:33N 43°14' E 009°53'31821.2
2014-Oct-25 23:33N 38°32' E 013°09'2221.7
2014-Oct-25 22:34N 38°13' E 013°23'6 5.8
2014-Oct-25 21:33N 38°08' E 013°22'0 0.0
2014-Oct-25 20:33N 38°08' E 013°22'0 0.0
2014-Oct-25 19:33N 38°08' E 013°22'0 0.0
2014-Oct-25 18:32N 38°08' E 013°22'0 0.0
2014-Oct-25 17:32N 38°08' E 013°22'1110.9
2014-Oct-25 16:33N 38°18' E 013°20'2221.8
2014-Oct-25 15:33N 38°37' E 013°05'31421.7
2014-Oct-25 01:07N 43°08' E 009°35'1221.7
2014-Oct-25 00:34N 43°19' E 009°29'2222.0
2014-Oct-24 23:33N 43°39' E 009°18'2221.7
2014-Oct-24 22:33N 44°00' E 009°09'2221.8
2014-Oct-24 21:33N 44°21' E 008°58'5 4.4
2014-Oct-24 20:30N 44°25' E 008°55'0 0.0
2014-Oct-24 17:09N 44°25' E 008°55'711.5
2014-Oct-24 16:33N 44°19' E 009°00'2424.4
2014-Oct-24 15:34N 43°58' E 009°17'2524.8
2014-Oct-24 14:33N 43°37' E 009°35'2524.8
2014-Oct-24 13:34N 43°15' E 009°52'2624.4
2014-Oct-24 12:30N 42°50' E 010°01'30521.9
2014-Oct-23 22:32N 38°36' E 013°45'2323.8
2014-Oct-23 21:33N 38°16' E 013°31'1110.7
2014-Oct-23 20:33N 38°08' E 013°22'0 0.0
2014-Oct-23 19:32N 38°08' E 013°22'0 0.0
2014-Oct-23 18:32N 38°08' E 013°22'0 0.0
2014-Oct-23 17:31N 38°08' E 013°22'0 0.0
2014-Oct-23 16:31N 38°08' E 013°22'7 7.4
2014-Oct-23 15:34N 38°15' E 013°23'2221.7
2014-Oct-23 14:32N 38°34' E 013°08'31922.8
2014-Oct-23 00:33N 43°09' E 009°35'2424.5
2014-Oct-22 23:34N 43°31' E 009°23'2524.6
2014-Oct-22 22:34N 43°55' E 009°11'2524.5
2014-Oct-22 21:33N 44°18' E 008°59'7 3.4
2014-Oct-22 19:21N 44°25' E 008°55'0 0.0
2014-Oct-22 18:33N 44°25' E 008°55'0 0.0
2014-Oct-22 17:33N 44°25' E 008°55'9 9.4
2014-Oct-22 16:33N 44°17' E 009°02'2423.7
2014-Oct-22 15:34N 43°56' E 009°18'2323.4
2014-Oct-22 14:34N 43°36' E 009°35'2323.5
2014-Oct-22 13:34N 43°16' E 009°52'31122.0
2014-Oct-21 23:25N 38°48' E 013°22'2124.5
2014-Oct-21 22:33N 38°29' E 013°31'2221.6
2014-Oct-21 21:33N 38°08' E 013°24'2 1.5
2014-Oct-21 20:31N 38°08' E 013°22'0 0.0
2014-Oct-21 19:33N 38°08' E 013°22'0 0.0
2014-Oct-21 18:24N 38°08' E 013°22'0 0.0
2014-Oct-21 17:32N 38°08' E 013°22'1 1.0
2014-Oct-21 16:34N 38°07' E 013°23'2120.1
2014-Oct-21 15:32N 38°26' E 013°13'32022.8
2014-Oct-21 01:29N 43°02' E 009°38'1920.9
2014-Oct-21 00:33N 43°20' E 009°29'2121.4
2014-Oct-20 23:33N 43°40' E 009°18'  
Track history (hours):
 
Tides and Currents Weather Stations Pressure Air Temp Water Temp Dewpoint Dewpoint Depression Visibility Wind Speed Wind Dir Waves Ship Positions

La Suprema

Last reported at 2014-Oct-30 23:33 UTC. Time now 2014-Oct-31 07:00 UTC.
Position N 38°32' E 013°08'.

Length 211 m; draft 7.3 m.

Type: Passenger vessel. MMSI: 247083700.

Date/timePositionNaut miles runAvg speedWind from/ knotsBaromVisibWave heightAir tempDewpointWater temp
2014-Oct-30 23:33N 38°32' E 013°08'2121.2
2014-Oct-30 22:34N 38°15' E 013°23'7 6.9
2014-Oct-30 21:33N 38°08' E 013°22'0 0.0
2014-Oct-30 20:33N 38°08' E 013°22'34718.9
2014-Oct-30 02:11N 43°09' E 009°34'1321.6
2014-Oct-30 01:33N 43°21' E 009°27'2222.1
2014-Oct-30 00:33N 43°42' E 009°17'2221.9
2014-Oct-29 23:34N 44°03' E 009°06'2121.4
2014-Oct-29 22:33N 44°23' E 008°57'2 2.1
2014-Oct-29 21:33N 44°25' E 008°55'0 0.0
2014-Oct-29 20:27N 44°25' E 008°55'0 0.0
2014-Oct-29 19:33N 44°25' E 008°55'0 0.0
2014-Oct-29 18:33N 44°25' E 008°55'3 3.5
2014-Oct-29 17:33N 44°22' E 008°58'2121.5
2014-Oct-29 16:34N 44°03' E 009°13'2121.5
2014-Oct-29 15:34N 43°45' E 009°28'2221.5
2014-Oct-29 14:33N 43°26' E 009°43'2221.6
2014-Oct-29 13:32N 43°07' E 009°58'30823.7
2014-Oct-29 00:33N 38°34' E 013°07'2424.4
2014-Oct-28 23:34N 38°14' E 013°24'6 6.0
2014-Oct-28 22:32N 38°08' E 013°22'0 0.0
2014-Oct-28 21:31N 38°08' E 013°22'0 0.0
2014-Oct-28 20:31N 38°08' E 013°22'0 0.0
2014-Oct-28 19:33N 38°08' E 013°22'0 0.0
2014-Oct-28 18:34N 38°08' E 013°22'5 4.9
2014-Oct-28 17:33N 38°13' E 013°23'2824.0
2014-Oct-28 16:24N 38°36' E 013°05'31422.2
2014-Oct-28 02:14N 43°07' E 009°35'1420.5
2014-Oct-28 01:34N 43°20' E 009°28'2120.7
2014-Oct-28 00:34N 43°40' E 009°18'2121.1
2014-Oct-27 23:34N 43°60' E 009°08'2121.4
2014-Oct-27 22:34N 44°20' E 008°58'5 2.4
2014-Oct-27 20:24N 44°25' E 008°55'0 0.0
2014-Oct-27 19:32N 44°25' E 008°55'0 0.0
2014-Oct-27 18:26N 44°25' E 008°55'0 0.0
2014-Oct-27 16:19N 44°25' E 008°55'0 0.0
2014-Oct-27 15:25N 44°25' E 008°55'0 0.0
2014-Oct-27 13:30N 44°25' E 008°55'0 0.0
2014-Oct-27 11:30N 44°25' E 008°55'0 0.0
2014-Oct-27 09:29N 44°25' E 008°55'0 0.0
2014-Oct-27 08:16N 44°25' E 008°55'0 0.0
2014-Oct-27 07:28N 44°25' E 008°55'0 0.0
2014-Oct-27 06:15N 44°25' E 008°55'0 0.0
2014-Oct-27 04:05N 44°25' E 008°55'0 0.0
2014-Oct-27 02:10N 44°25' E 008°55'0 0.0
2014-Oct-27 00:28N 44°25' E 008°55'0 0.0
2014-Oct-26 23:33N 44°25' E 008°55'0 0.0
2014-Oct-26 21:05N 44°25' E 008°55'0 0.0
2014-Oct-26 20:17N 44°25' E 008°55'0 0.0
2014-Oct-26 19:32N 44°25' E 008°55'0 0.2
2014-Oct-26 18:33N 44°24' E 008°55'1717.1
2014-Oct-26 17:33N 44°10' E 009°08'2221.7
2014-Oct-26 16:33N 43°51' E 009°23'2221.9
2014-Oct-26 15:33N 43°32' E 009°38'2221.5
2014-Oct-26 14:33N 43°14' E 009°53'31821.2
2014-Oct-25 23:33N 38°32' E 013°09'2221.7
2014-Oct-25 22:34N 38°13' E 013°23'6 5.8
2014-Oct-25 21:33N 38°08' E 013°22'0 0.0
2014-Oct-25 20:33N 38°08' E 013°22'0 0.0
2014-Oct-25 19:33N 38°08' E 013°22'0 0.0
2014-Oct-25 18:32N 38°08' E 013°22'0 0.0
2014-Oct-25 17:32N 38°08' E 013°22'1110.9
2014-Oct-25 16:33N 38°18' E 013°20'2221.8
2014-Oct-25 15:33N 38°37' E 013°05'31421.7
2014-Oct-25 01:07N 43°08' E 009°35'1221.7
2014-Oct-25 00:34N 43°19' E 009°29'2222.0
2014-Oct-24 23:33N 43°39' E 009°18'2221.7
2014-Oct-24 22:33N 44°00' E 009°09'2221.8
2014-Oct-24 21:33N 44°21' E 008°58'5 4.4
2014-Oct-24 20:30N 44°25' E 008°55'0 0.0
2014-Oct-24 17:09N 44°25' E 008°55'711.5
2014-Oct-24 16:33N 44°19' E 009°00'2424.4
2014-Oct-24 15:34N 43°58' E 009°17'2524.8
2014-Oct-24 14:33N 43°37' E 009°35'2524.8
2014-Oct-24 13:34N 43°15' E 009°52'2624.4
2014-Oct-24 12:30N 42°50' E 010°01'30521.9
2014-Oct-23 22:32N 38°36' E 013°45'2323.8
2014-Oct-23 21:33N 38°16' E 013°31'1110.7
2014-Oct-23 20:33N 38°08' E 013°22'0 0.0
2014-Oct-23 19:32N 38°08' E 013°22'0 0.0
2014-Oct-23 18:32N 38°08' E 013°22'0 0.0
2014-Oct-23 17:31N 38°08' E 013°22'0 0.0
2014-Oct-23 16:31N 38°08' E 013°22'7 7.4
2014-Oct-23 15:34N 38°15' E 013°23'2221.7
2014-Oct-23 14:32N 38°34' E 013°08'31922.8
2014-Oct-23 00:33N 43°09' E 009°35'2424.5
2014-Oct-22 23:34N 43°31' E 009°23'2524.6
2014-Oct-22 22:34N 43°55' E 009°11'2524.5
2014-Oct-22 21:33N 44°18' E 008°59'7 3.4
2014-Oct-22 19:21N 44°25' E 008°55'0 0.0
2014-Oct-22 18:33N 44°25' E 008°55'0 0.0
2014-Oct-22 17:33N 44°25' E 008°55'9 9.4
2014-Oct-22 16:33N 44°17' E 009°02'2423.7
2014-Oct-22 15:34N 43°56' E 009°18'2323.4
2014-Oct-22 14:34N 43°36' E 009°35'2323.5
2014-Oct-22 13:34N 43°16' E 009°52'31122.0
2014-Oct-21 23:25N 38°48' E 013°22'2124.5
2014-Oct-21 22:33N 38°29' E 013°31'2221.6
2014-Oct-21 21:33N 38°08' E 013°24'2 1.5
2014-Oct-21 20:31N 38°08' E 013°22'0 0.0
2014-Oct-21 19:33N 38°08' E 013°22'0 0.0
2014-Oct-21 18:24N 38°08' E 013°22'0 0.0
2014-Oct-21 17:32N 38°08' E 013°22'1 1.0
2014-Oct-21 16:34N 38°07' E 013°23'2120.1
2014-Oct-21 15:32N 38°26' E 013°13'32022.8
2014-Oct-21 01:29N 43°02' E 009°38'1920.9
2014-Oct-21 00:33N 43°20' E 009°29'2121.4
2014-Oct-20 23:33N 43°40' E 009°18'  

Dump ship's entire track history